createdAt,value
2022-10-28T00:01:37.795Z,99708.00
2022-10-28T00:04:04.889Z,99706.00
2022-10-28T00:06:35.046Z,99702.03
2022-10-28T00:09:04.538Z,99701.34
2022-10-28T00:11:35.062Z,99700.88
2022-10-28T00:14:04.426Z,99710.19
2022-10-28T00:16:34.422Z,99701.19
2022-10-28T00:19:03.508Z,99697.44
2022-10-28T00:21:34.195Z,99695.19
2022-10-28T00:24:08.750Z,99697.75
2022-10-28T00:26:37.572Z,99694.19
2022-10-28T00:29:10.816Z,99691.13
2022-10-28T00:31:38.099Z,99685.16
2022-10-28T00:34:07.231Z,99687.16
2022-10-28T00:36:37.651Z,99681.66
2022-10-28T00:39:20.382Z,99681.13
2022-10-28T00:41:56.291Z,99679.31
2022-10-28T00:44:48.805Z,99676.38
2022-10-28T00:47:28.080Z,99671.22
2022-10-28T00:50:01.557Z,99672.63
2022-10-28T00:52:32.272Z,99667.38
2022-10-28T00:55:02.934Z,99665.44
2022-10-28T00:57:34.738Z,99660.75
2022-10-28T01:00:05.253Z,99657.72
2022-10-28T01:02:37.697Z,99653.66
2022-10-28T01:05:04.885Z,99657.94
2022-10-28T01:07:31.957Z,99651.50
2022-10-28T01:09:58.827Z,99645.50
2022-10-28T01:12:38.308Z,99646.81
2022-10-28T01:15:17.893Z,99638.47
2022-10-28T01:18:33.330Z,99634.41
2022-10-28T01:21:18.184Z,99631.78
2022-10-28T01:24:08.451Z,99628.63
2022-10-28T01:26:47.533Z,99617.72
2022-10-28T01:29:14.747Z,99614.13
2022-10-28T01:31:47.154Z,99615.44
2022-10-28T01:34:50.983Z,99611.13
2022-10-28T01:37:24.687Z,99615.69
2022-10-28T01:40:02.733Z,99609.69
2022-10-28T01:42:34.148Z,99613.16
2022-10-28T01:45:04.214Z,99619.97
2022-10-28T01:47:46.512Z,99621.75
2022-10-28T01:50:17.436Z,99621.19
2022-10-28T01:52:46.772Z,99623.19
2022-10-28T01:55:30.265Z,99622.59
2022-10-28T01:58:01.251Z,99617.66
2022-10-28T02:00:29.894Z,99606.47
2022-10-28T02:02:57.123Z,99609.69
2022-10-28T02:05:42.751Z,99596.59
2022-10-28T02:08:19.104Z,99590.59
2022-10-28T02:11:24.478Z,99594.03
2022-10-28T02:14:07.592Z,99598.50
2022-10-28T02:16:51.747Z,99605.19
2022-10-28T02:19:34.217Z,99599.69
2022-10-28T02:22:46.178Z,99598.97
2022-10-28T02:25:17.108Z,99602.31
2022-10-28T02:28:00.169Z,99593.97
2022-10-28T02:30:39.959Z,99587.56
2022-10-28T02:33:12.932Z,99586.84
2022-10-28T02:35:47.697Z,99586.78
2022-10-28T02:38:21.528Z,99592.09
2022-10-28T02:40:54.108Z,99584.06
2022-10-28T02:43:23.668Z,99594.75
2022-10-28T02:45:59.038Z,99595.50
2022-10-28T02:48:30.594Z,99590.44
2022-10-28T02:51:11.572Z,99586.22
2022-10-28T02:54:00.316Z,99580.94
2022-10-28T02:56:31.743Z,99583.22
2022-10-28T02:58:58.589Z,99587.53
2022-10-28T03:01:25.795Z,99575.03
2022-10-28T03:03:52.792Z,99582.09
2022-10-28T03:06:19.917Z,99577.31
2022-10-28T03:08:46.682Z,99584.38
2022-10-28T03:11:13.687Z,99585.13
2022-10-28T03:13:40.458Z,99580.09
2022-10-28T03:16:07.511Z,99576.25
2022-10-28T03:18:34.289Z,99582.75
2022-10-28T03:21:01.317Z,99562.38
2022-10-28T03:23:28.159Z,99571.78
2022-10-28T03:25:55.153Z,99564.28
2022-10-28T03:28:22.061Z,99565.03
2022-10-28T03:30:49.084Z,99562.78
2022-10-28T03:33:15.944Z,99564.34
2022-10-28T03:35:42.995Z,99560.75
2022-10-28T03:38:09.839Z,99560.59
2022-10-28T03:40:41.837Z,99556.78
2022-10-28T03:43:08.804Z,99554.34
2022-10-28T03:45:35.844Z,99558.50
2022-10-28T21:05:09.903Z,99383.44
2022-10-28T21:08:02.662Z,99382.31
2022-10-28T21:10:32.049Z,99374.63
2022-10-28T21:13:12.373Z,99371.38
2022-10-28T21:15:47.124Z,99363.91
2022-10-28T21:18:26.446Z,99376.22
2022-10-28T21:20:58.483Z,99372.72
2022-10-28T21:23:34.284Z,99366.06
2022-10-28T21:26:22.680Z,99358.97
2022-10-28T21:28:52.189Z,99362.03
2022-10-28T21:32:00.114Z,99359.59
2022-10-28T21:34:45.538Z,99349.56
2022-10-28T21:40:01.049Z,99361.00
2022-10-28T21:42:28.361Z,99357.34
2022-10-28T21:44:55.549Z,99370.78
2022-10-28T21:47:22.733Z,99368.69
2022-10-28T21:49:50.156Z,99355.56
2022-10-28T21:52:17.666Z,99357.22
2022-10-28T21:54:48.054Z,99349.41
2022-10-28T21:57:15.052Z,99346.06
2022-10-28T21:59:42.812Z,99344.81
2022-10-28T22:02:10.277Z,99341.78
2022-10-28T22:04:38.587Z,99340.81
2022-10-28T22:07:08.500Z,99342.84
2022-10-28T22:09:37.663Z,99340.31
2022-10-28T22:12:05.084Z,99338.19
2022-10-28T22:14:32.660Z,99350.34
2022-10-28T22:16:59.618Z,99345.81
